Terminal Aerodrome Forecast
Issued by NWS Dodge City, KS

Home | Current Version | Previous Version | Text Only | Print | Product List | Glossary On
Versions: 1 2 3 4 5 6 7 8 9 10 11 12 13 14 15 16 17 18 19 20 21 22 23 24 25 26 27 28 29 30 31 32 33 34 35 36 37 38 39 40 41 42
000
FTUS43 KDDC 271314 AAA
TAFDDC
TAF AMD
KDDC 271314Z 2713/2812 13009KT 3SM -SN OVC030
      TEMPO 2713/2715 1SM -SN OVC015
     FM271700 15014KT P6SM -SN OVC022
     FM280100 15011KT P6SM OVC016=

USA.gov is the U.S. government's official web portal to all federal, state and local government web resources and services.